Terminal Aerodrome Forecast
Issued by NWS

Home | Current Version | Previous Version | Text Only | Print | Product List | Glossary On
Versions: 1 2 3 4 5 6 7 8 9 10 11 12 13 14 15 16 17 18 19 20 21 22 23 24 25 26 27
000
FTUS44 KFWD 202300 CCA
TAFDAL
TAF COR
KDAL 202332Z 2100/2124 16013KT P6SM VCTS BKN060CB OVC090
      TEMPO 2100/2101 5SM -TSRA BKN035CB
     FM210600 18010KT P6SM BKN025
     FM210800 19008KT P6SM BKN015
     FM211700 19013KT P6SM SCT030 SCT100 SCT250
     FM212000 17008KT P6SM VCTS BKN050CB=

USA.gov is the U.S. government's official web portal to all federal, state and local government web resources and services.